Terminal Aerodrome Forecast
Issued by NWS

Current Version | Previous Version | Text Only | Print | Product List | Glossary On
Versions: 1 2 3 4 5 6 7 8 9 10 11 12
000
FTUS46 KSGX 170500
TAFONT
TAF
KONT 170520Z 1706/1812 VRB05KT P6SM FEW100
     FM172000 26012G18KT P6SM FEW090 SCT150
     FM180330 VRB05KT P6SM FEW150=

USA.gov is the U.S. government's official web portal to all federal, state and local government web resources and services.